Time;durP1;ratioP1;P1;durP2;ratioP2;P2;SDS_P1;SDS_P2;PMS_P1;PMS_P2;Temp;Humidity;BMP_temperature;BMP_pressure;BME280_temperature;BME280_humidity;BME280_pressure;Samples;Min_cycle;Max_cycle;Signal;HPM_P1;HPM_P2
2023/09/25 00:01:57;;;;;;;;;;;20.70;67.50;;;;;;5027318;28;1425;-70
2023/09/25 00:04:25;;;;;;;;;;;20.70;67.50;;;;;;5043239;28;1180;-72
2023/09/25 00:06:51;;;;;;;;;;;20.70;67.60;;;;;;5059555;28;1368;-71
2023/09/25 00:09:16;;;;;;;;;;;20.70;67.60;;;;;;5064648;28;1394;-71
2023/09/25 00:11:42;;;;;;;;;;;20.70;67.60;;;;;;5061384;28;1349;-72
2023/09/25 00:14:08;;;;;;;;;;;20.70;67.60;;;;;;5061529;28;1953;-72
2023/09/25 00:16:34;;;;;;;;;;;20.70;67.60;;;;;;5035427;28;1230;-69
2023/09/25 00:18:59;;;;;;;;;;;20.70;67.60;;;;;;5062613;28;1141;-69
2023/09/25 00:21:24;;;;;;;;;;;20.70;67.60;;;;;;5026704;28;1317;-69
2023/09/25 00:23:50;;;;;;;;;;;20.70;67.60;;;;;;5062457;28;1361;-69
2023/09/25 00:26:15;;;;;;;;;;;20.70;67.60;;;;;;5065857;28;1289;-69
2023/09/25 00:28:41;;;;;;;;;;;20.70;67.60;;;;;;5060916;28;1200;-69
2023/09/25 00:31:07;;;;;;;;;;;20.70;67.60;;;;;;5044096;28;1366;-69
2023/09/25 00:33:32;;;;;;;;;;;20.70;67.60;;;;;;5061096;28;1485;-69
2023/09/25 00:35:58;;;;;;;;;;;20.70;67.70;;;;;;5061120;28;1972;-69
2023/09/25 00:38:23;;;;;;;;;;;20.70;67.70;;;;;;5061556;28;1171;-69
2023/09/25 00:40:49;;;;;;;;;;;20.70;67.70;;;;;;5061978;28;1139;-70
2023/09/25 00:43:14;;;;;;;;;;;20.70;67.70;;;;;;5045997;28;1323;-69
2023/09/25 00:45:41;;;;;;;;;;;20.70;67.70;;;;;;5047029;28;1554;-70
2023/09/25 00:48:07;;;;;;;;;;;20.70;67.70;;;;;;5046013;28;1440;-70
2023/09/25 00:50:33;;;;;;;;;;;20.70;67.80;;;;;;5061972;28;1472;-70
2023/09/25 00:53:01;;;;;;;;;;;20.70;67.70;;;;;;5063717;28;1295;-70
2023/09/25 00:55:26;;;;;;;;;;;20.70;67.70;;;;;;5051990;28;1894;-70
2023/09/25 00:57:52;;;;;;;;;;;20.70;67.80;;;;;;5064159;28;1541;-70
2023/09/25 01:00:18;;;;;;;;;;;20.70;67.70;;;;;;5045717;28;1325;-69
2023/09/25 01:02:43;;;;;;;;;;;20.70;67.80;;;;;;5043964;28;1311;-70
2023/09/25 01:05:09;;;;;;;;;;;20.70;67.80;;;;;;5065073;28;1638;-69
2023/09/25 01:07:37;;;;;;;;;;;20.70;67.80;;;;;;5061843;28;795;-69
2023/09/25 01:10:10;;;;;;;;;;;20.70;67.80;;;;;;5049157;28;1446;-69
2023/09/25 01:12:37;;;;;;;;;;;20.70;67.80;;;;;;5057366;28;1377;-69
2023/09/25 01:15:03;;;;;;;;;;;20.70;67.80;;;;;;5046143;28;1957;-70
2023/09/25 01:17:28;;;;;;;;;;;20.70;67.90;;;;;;5064635;28;1638;-70
2023/09/25 01:19:54;;;;;;;;;;;20.70;67.80;;;;;;5047042;28;1422;-69
2023/09/25 01:22:19;;;;;;;;;;;20.70;67.80;;;;;;5060520;28;1368;-69
2023/09/25 01:24:45;;;;;;;;;;;20.70;67.90;;;;;;5063132;28;1441;-70
2023/09/25 01:27:10;;;;;;;;;;;20.70;68.70;;;;;;5045081;28;1398;-70
2023/09/25 01:29:36;;;;;;;;;;;20.70;67.90;;;;;;5044842;28;1571;-69
2023/09/25 01:32:01;;;;;;;;;;;20.70;67.90;;;;;;5059561;28;1359;-70
2023/09/25 01:34:27;;;;;;;;;;;20.70;67.90;;;;;;5044004;28;1956;-69
2023/09/25 01:36:52;;;;;;;;;;;20.70;67.90;;;;;;5042308;28;1506;-71
2023/09/25 01:39:18;;;;;;;;;;;20.70;68.00;;;;;;5062347;28;1641;-69
2023/09/25 01:41:43;;;;;;;;;;;20.70;68.00;;;;;;5051189;28;1449;-70
2023/09/25 01:44:09;;;;;;;;;;;20.70;67.90;;;;;;5060753;28;1525;-69
2023/09/25 01:46:34;;;;;;;;;;;20.70;67.90;;;;;;5060085;28;1266;-69
2023/09/25 01:49:00;;;;;;;;;;;20.70;68.00;;;;;;5059955;28;1404;-69
2023/09/25 01:51:25;;;;;;;;;;;20.70;68.00;;;;;;5044438;28;1398;-70
2023/09/25 01:53:51;;;;;;;;;;;20.70;68.00;;;;;;5062971;28;1515;-71
2023/09/25 01:56:16;;;;;;;;;;;20.70;68.00;;;;;;5041584;28;1215;-71
2023/09/25 01:58:43;;;;;;;;;;;20.70;68.00;;;;;;5050887;28;1453;-70
2023/09/25 02:01:08;;;;;;;;;;;20.70;68.00;;;;;;5062991;28;1657;-70
2023/09/25 02:03:34;;;;;;;;;;;20.70;68.00;;;;;;5059238;28;1391;-70
2023/09/25 02:05:59;;;;;;;;;;;20.70;68.00;;;;;;5061521;28;1368;-72
2023/09/25 02:08:25;;;;;;;;;;;20.70;68.10;;;;;;5043269;28;1072;-70
2023/09/25 02:10:50;;;;;;;;;;;20.70;68.10;;;;;;5063171;28;1162;-70
2023/09/25 02:13:16;;;;;;;;;;;20.70;68.10;;;;;;5063388;28;1288;-70
2023/09/25 02:15:41;;;;;;;;;;;20.70;68.10;;;;;;5057623;28;1975;-70
2023/09/25 02:18:08;;;;;;;;;;;20.70;68.10;;;;;;5062690;28;927;-70
2023/09/25 02:20:34;;;;;;;;;;;20.70;68.10;;;;;;5062461;28;1472;-74
2023/09/25 02:23:00;;;;;;;;;;;20.70;68.00;;;;;;5062435;28;1428;-70
2023/09/25 02:25:25;;;;;;;;;;;20.70;68.10;;;;;;5062427;28;1258;-72
2023/09/25 02:27:51;;;;;;;;;;;20.70;68.10;;;;;;5044259;28;1292;-71
2023/09/25 02:30:16;;;;;;;;;;;20.70;68.10;;;;;;5060602;28;1250;-73
2023/09/25 02:32:43;;;;;;;;;;;20.70;68.10;;;;;;5042642;28;1415;-71
2023/09/25 02:35:09;;;;;;;;;;;20.70;68.10;;;;;;5041046;28;2557;-70
2023/09/25 02:37:35;;;;;;;;;;;20.70;68.10;;;;;;5042972;28;1002;-70
2023/09/25 02:40:00;;;;;;;;;;;20.70;68.10;;;;;;5045948;28;1391;-72
2023/09/25 02:42:26;;;;;;;;;;;20.70;68.10;;;;;;5043024;28;1498;-69
2023/09/25 02:44:52;;;;;;;;;;;20.70;68.10;;;;;;5058917;28;1523;-70
2023/09/25 02:47:17;;;;;;;;;;;20.70;68.20;;;;;;5059204;28;1238;-70
2023/09/25 02:49:43;;;;;;;;;;;20.70;68.10;;;;;;5061485;28;1324;-70
2023/09/25 02:52:08;;;;;;;;;;;20.70;68.10;;;;;;5042848;28;1486;-71
2023/09/25 02:54:34;;;;;;;;;;;20.70;68.20;;;;;;5046484;28;1963;-70
2023/09/25 02:56:59;;;;;;;;;;;20.70;68.20;;;;;;5057547;28;1311;-71
2023/09/25 02:59:25;;;;;;;;;;;20.70;68.20;;;;;;5057976;28;1365;-71
2023/09/25 03:01:50;;;;;;;;;;;20.70;68.20;;;;;;5057329;28;1336;-70
2023/09/25 03:04:16;;;;;;;;;;;20.70;68.20;;;;;;5045903;28;1326;-70
2023/09/25 03:06:41;;;;;;;;;;;20.70;68.20;;;;;;5058971;28;1569;-70
2023/09/25 03:09:07;;;;;;;;;;;20.70;68.20;;;;;;5059141;28;1577;-70
2023/09/25 03:11:32;;;;;;;;;;;20.70;68.20;;;;;;5056941;28;1465;-70
2023/09/25 03:13:58;;;;;;;;;;;20.70;68.20;;;;;;5060047;28;1913;-70
2023/09/25 03:16:23;;;;;;;;;;;20.70;68.20;;;;;;5062621;28;1534;-71
2023/09/25 03:18:49;;;;;;;;;;;20.70;68.20;;;;;;5044064;28;1563;-71
2023/09/25 03:21:16;;;;;;;;;;;20.70;68.20;;;;;;5044597;28;1474;-70
2023/09/25 03:23:41;;;;;;;;;;;20.70;68.20;;;;;;5057131;28;1444;-70
2023/09/25 03:26:14;;;;;;;;;;;20.70;68.30;;;;;;5057856;28;1406;-70
2023/09/25 03:28:39;;;;;;;;;;;20.70;68.30;;;;;;5060201;28;1535;-69
2023/09/25 03:31:05;;;;;;;;;;;20.70;68.30;;;;;;5041423;28;1343;-70
2023/09/25 03:33:30;;;;;;;;;;;20.70;68.30;;;;;;5050032;23;3867;-64
2023/09/25 03:35:56;;;;;;;;;;;20.70;68.30;;;;;;5048730;28;1906;-64
2023/09/25 03:38:22;;;;;;;;;;;20.70;68.30;;;;;;5054006;28;1222;-64
2023/09/25 03:40:47;;;;;;;;;;;20.70;68.30;;;;;;5053635;28;1437;-63
2023/09/25 03:43:13;;;;;;;;;;;20.70;68.30;;;;;;5052785;28;1287;-65
2023/09/25 03:45:38;;;;;;;;;;;20.70;68.30;;;;;;5073435;28;1287;-63
2023/09/25 03:48:04;;;;;;;;;;;20.70;68.30;;;;;;5065296;28;1543;-65
2023/09/25 03:50:29;;;;;;;;;;;20.70;68.30;;;;;;5072046;28;1151;-65
2023/09/25 03:52:58;;;;;;;;;;;20.70;68.40;;;;;;5069999;28;1266;-64
2023/09/25 03:55:23;;;;;;;;;;;20.70;68.40;;;;;;5072293;28;1898;-64
2023/09/25 03:57:49;;;;;;;;;;;20.70;68.40;;;;;;5073208;28;1429;-65
2023/09/25 04:00:14;;;;;;;;;;;20.70;68.40;;;;;;5077530;28;1410;-65
2023/09/25 04:02:40;;;;;;;;;;;20.70;68.40;;;;;;5074716;28;1364;-65
2023/09/25 04:05:06;;;;;;;;;;;20.70;68.40;;;;;;5061792;28;1390;-65
2023/09/25 04:07:31;;;;;;;;;;;20.70;68.40;;;;;;5077076;28;1287;-65
2023/09/25 04:09:56;;;;;;;;;;;20.70;68.40;;;;;;5074905;28;1230;-65
2023/09/25 04:12:22;;;;;;;;;;;20.70;68.40;;;;;;5071026;28;1312;-65
2023/09/25 04:14:48;;;;;;;;;;;20.70;68.40;;;;;;5068703;28;2001;-65
2023/09/25 04:17:15;;;;;;;;;;;20.70;68.40;;;;;;5078105;28;1291;-65
2023/09/25 04:19:41;;;;;;;;;;;20.70;68.50;;;;;;5080865;28;1440;-65
2023/09/25 04:22:06;;;;;;;;;;;20.70;68.40;;;;;;5075815;28;1245;-65
2023/09/25 04:24:35;;;;;;;;;;;20.70;68.40;;;;;;5073909;28;1486;-65
2023/09/25 04:27:02;;;;;;;;;;;20.70;68.40;;;;;;5070992;28;1363;-65
2023/09/25 04:29:27;;;;;;;;;;;20.70;68.50;;;;;;5059081;28;2094;-66
2023/09/25 04:31:53;;;;;;;;;;;20.70;68.50;;;;;;5073835;28;1278;-65
2023/09/25 04:34:18;;;;;;;;;;;20.70;68.50;;;;;;5073901;28;1967;-65
2023/09/25 04:36:46;;;;;;;;;;;20.70;68.50;;;;;;5078369;28;1351;-65
2023/09/25 04:39:11;;;;;;;;;;;20.70;68.50;;;;;;5070896;28;1631;-64
2023/09/25 04:41:37;;;;;;;;;;;20.70;68.50;;;;;;5071448;28;1236;-64
2023/09/25 04:44:04;;;;;;;;;;;20.70;68.50;;;;;;5077336;28;1315;-65
2023/09/25 04:46:30;;;;;;;;;;;20.70;68.50;;;;;;5068823;28;1414;-65
2023/09/25 04:48:55;;;;;;;;;;;20.70;68.50;;;;;;5072729;28;1234;-65
2023/09/25 04:51:21;;;;;;;;;;;20.70;68.50;;;;;;5075004;28;1007;-65
2023/09/25 04:53:47;;;;;;;;;;;20.70;68.50;;;;;;5068396;28;1363;-64
2023/09/25 04:56:20;;;;;;;;;;;20.70;68.50;;;;;;5067035;28;1960;-63
2023/09/25 04:58:45;;;;;;;;;;;20.70;68.50;;;;;;5051399;28;1256;-62
2023/09/25 05:01:10;;;;;;;;;;;20.70;68.60;;;;;;5078627;28;1197;-64
2023/09/25 05:03:36;;;;;;;;;;;20.70;68.60;;;;;;5071427;28;1309;-64
2023/09/25 05:06:01;;;;;;;;;;;20.70;68.60;;;;;;5073197;28;1183;-63
2023/09/25 05:08:27;;;;;;;;;;;20.70;68.60;;;;;;5070370;28;1009;-64
2023/09/25 05:10:52;;;;;;;;;;;20.70;68.60;;;;;;5069992;28;867;-64
2023/09/25 05:13:18;;;;;;;;;;;20.70;68.60;;;;;;5078631;28;1279;-62
2023/09/25 05:15:43;;;;;;;;;;;20.70;68.60;;;;;;5076385;28;1914;-63
2023/09/25 05:18:09;;;;;;;;;;;20.70;68.60;;;;;;5071878;28;1324;-63
2023/09/25 05:20:34;;;;;;;;;;;20.70;68.60;;;;;;5067558;28;1630;-64
2023/09/25 05:23:00;;;;;;;;;;;20.70;68.60;;;;;;5072145;28;1324;-64
2023/09/25 05:25:26;;;;;;;;;;;20.70;68.60;;;;;;5069667;28;1469;-63
2023/09/25 05:27:54;;;;;;;;;;;20.70;68.70;;;;;;5074321;28;1375;-64
2023/09/25 05:30:20;;;;;;;;;;;20.70;68.70;;;;;;5057313;28;1433;-64
2023/09/25 05:32:46;;;;;;;;;;;20.70;68.70;;;;;;5064139;28;1223;-66
2023/09/25 05:35:12;;;;;;;;;;;20.70;68.70;;;;;;5068101;28;1971;-65
2023/09/25 05:37:39;;;;;;;;;;;20.70;68.70;;;;;;5074077;28;1280;-65
2023/09/25 05:40:09;;;;;;;;;;;20.70;68.70;;;;;;5073558;28;1160;-64
2023/09/25 05:42:35;;;;;;;;;;;20.70;68.70;;;;;;5073215;28;1446;-65
2023/09/25 05:45:00;;;;;;;;;;;20.70;68.70;;;;;;5065924;28;1314;-64
2023/09/25 05:47:26;;;;;;;;;;;20.70;68.70;;;;;;5066337;28;1282;-64
2023/09/25 05:49:51;;;;;;;;;;;20.70;68.70;;;;;;5072424;28;1347;-64
2023/09/25 05:52:17;;;;;;;;;;;20.70;68.70;;;;;;5068890;28;1240;-64
2023/09/25 05:54:43;;;;;;;;;;;20.70;68.70;;;;;;5078080;28;1909;-65
2023/09/25 05:57:09;;;;;;;;;;;20.70;68.80;;;;;;5070220;28;1555;-64
2023/09/25 05:59:34;;;;;;;;;;;20.70;68.80;;;;;;5073399;28;1664;-65
2023/09/25 06:02:03;;;;;;;;;;;20.70;68.70;;;;;;5075519;28;1320;-65
2023/09/25 06:04:28;;;;;;;;;;;20.70;68.80;;;;;;5056335;28;1371;-64
2023/09/25 06:06:55;;;;;;;;;;;20.70;68.80;;;;;;5077813;28;1225;-66
2023/09/25 06:09:20;;;;;;;;;;;20.70;68.80;;;;;;5066315;28;1162;-65
2023/09/25 06:11:46;;;;;;;;;;;20.70;68.80;;;;;;5076415;28;1303;-65
2023/09/25 06:14:12;;;;;;;;;;;20.70;68.90;;;;;;5071440;28;2019;-64
2023/09/25 06:16:39;;;;;;;;;;;20.70;68.80;;;;;;5068608;28;1348;-65
2023/09/25 06:19:04;;;;;;;;;;;20.70;68.80;;;;;;5073237;28;1400;-66
2023/09/25 06:21:30;;;;;;;;;;;20.70;68.90;;;;;;5072202;28;1428;-65
2023/09/25 06:23:56;;;;;;;;;;;20.70;68.90;;;;;;5070758;28;1436;-64
2023/09/25 06:26:22;;;;;;;;;;;20.70;68.90;;;;;;5077621;28;1131;-65
2023/09/25 06:28:47;;;;;;;;;;;20.70;68.90;;;;;;5070317;28;1362;-65
2023/09/25 06:31:13;;;;;;;;;;;20.70;68.80;;;;;;5064301;28;1132;-66
2023/09/25 06:33:39;;;;;;;;;;;20.70;68.90;;;;;;5068994;28;1353;-65
2023/09/25 06:36:04;;;;;;;;;;;20.70;68.90;;;;;;5070859;28;1909;-65
2023/09/25 06:38:30;;;;;;;;;;;20.70;68.90;;;;;;5069712;28;1443;-66
2023/09/25 06:40:55;;;;;;;;;;;20.70;68.90;;;;;;5062645;28;1506;-66
2023/09/25 06:43:21;;;;;;;;;;;20.70;68.90;;;;;;5072526;28;1444;-66
2023/09/25 06:45:47;;;;;;;;;;;20.70;68.90;;;;;;5073314;28;1233;-66
2023/09/25 06:48:12;;;;;;;;;;;20.70;68.90;;;;;;5075853;28;1530;-65
2023/09/25 06:50:38;;;;;;;;;;;20.70;68.90;;;;;;5076469;28;1304;-65
2023/09/25 06:53:03;;;;;;;;;;;20.70;68.90;;;;;;5074604;28;1327;-65
2023/09/25 06:55:29;;;;;;;;;;;20.70;68.90;;;;;;5080720;28;1961;-65
2023/09/25 06:57:54;;;;;;;;;;;20.70;69.00;;;;;;5055302;28;1505;-65
2023/09/25 07:00:20;;;;;;;;;;;20.70;68.90;;;;;;5075362;28;1365;-65
2023/09/25 07:02:46;;;;;;;;;;;20.70;69.00;;;;;;5057942;28;1369;-65
2023/09/25 07:05:11;;;;;;;;;;;20.70;68.90;;;;;;5072174;28;1404;-65
2023/09/25 07:07:37;;;;;;;;;;;20.70;69.00;;;;;;5066686;28;1349;-65
2023/09/25 07:10:08;;;;;;;;;;;20.70;69.00;;;;;;5073878;28;1347;-65
2023/09/25 07:12:33;;;;;;;;;;;20.70;69.00;;;;;;5070187;28;1425;-65
2023/09/25 07:15:01;;;;;;;;;;;20.70;69.00;;;;;;5070584;28;1898;-65
2023/09/25 07:17:27;;;;;;;;;;;20.70;69.00;;;;;;5074873;28;1455;-65
2023/09/25 07:19:53;;;;;;;;;;;20.70;69.00;;;;;;5067450;28;1454;-65
2023/09/25 07:22:20;;;;;;;;;;;20.70;69.10;;;;;;5064358;28;1336;-65
2023/09/25 07:24:45;;;;;;;;;;;20.70;69.10;;;;;;5068549;28;1420;-65
2023/09/25 07:27:11;;;;;;;;;;;20.70;69.00;;;;;;5071658;28;1493;-65
2023/09/25 07:29:37;;;;;;;;;;;20.70;69.00;;;;;;5056969;28;1389;-65
2023/09/25 07:32:02;;;;;;;;;;;20.70;69.10;;;;;;5068226;28;1328;-65
2023/09/25 07:34:29;;;;;;;;;;;20.70;69.10;;;;;;5066517;28;1975;-65
2023/09/25 07:36:54;;;;;;;;;;;20.70;69.10;;;;;;5068093;28;1273;-65
2023/09/25 07:39:22;;;;;;;;;;;20.70;69.10;;;;;;5075086;28;1358;-65
2023/09/25 07:41:48;;;;;;;;;;;20.60;69.00;;;;;;5068063;28;1179;-65
2023/09/25 07:44:13;;;;;;;;;;;20.70;69.80;;;;;;5067399;28;1475;-66
2023/09/25 07:46:39;;;;;;;;;;;20.70;69.10;;;;;;5066125;28;1873;-66
2023/09/25 07:49:05;;;;;;;;;;;20.70;69.10;;;;;;5074500;28;1237;-66
2023/09/25 07:51:32;;;;;;;;;;;20.70;69.10;;;;;;5074023;28;937;-66
2023/09/25 07:53:58;;;;;;;;;;;20.70;69.10;;;;;;5075927;28;1370;-65
2023/09/25 07:56:24;;;;;;;;;;;20.70;69.10;;;;;;5073669;28;1930;-66
2023/09/25 07:58:49;;;;;;;;;;;20.60;69.00;;;;;;5053244;28;1253;-66
2023/09/25 08:01:15;;;;;;;;;;;20.70;69.10;;;;;;5069287;28;994;-65
2023/09/25 08:03:40;;;;;;;;;;;20.70;69.10;;;;;;5076047;28;1299;-65
2023/09/25 08:06:06;;;;;;;;;;;20.70;69.10;;;;;;5078563;28;1195;-65
2023/09/25 08:08:33;;;;;;;;;;;20.70;69.10;;;;;;5075394;28;1500;-66
2023/09/25 08:10:59;;;;;;;;;;;20.70;69.10;;;;;;5067864;28;1644;-65
2023/09/25 08:13:25;;;;;;;;;;;20.60;69.00;;;;;;5052780;28;1488;-66
2023/09/25 08:15:51;;;;;;;;;;;20.70;69.10;;;;;;5072011;28;1909;-66
2023/09/25 08:18:16;;;;;;;;;;;20.70;69.10;;;;;;5076391;28;1799;-66
2023/09/25 08:20:42;;;;;;;;;;;20.70;69.80;;;;;;5075436;28;1420;-66
2023/09/25 08:23:08;;;;;;;;;;;20.70;69.10;;;;;;5069062;28;1509;-65
2023/09/25 08:25:34;;;;;;;;;;;20.70;69.10;;;;;;5073391;28;1457;-65
2023/09/25 08:27:59;;;;;;;;;;;20.60;69.00;;;;;;5051934;28;1310;-66
2023/09/25 08:30:25;;;;;;;;;;;20.70;69.10;;;;;;5075755;28;1437;-66
2023/09/25 08:32:50;;;;;;;;;;;20.70;69.10;;;;;;5077315;28;1434;-65
2023/09/25 08:35:16;;;;;;;;;;;20.70;69.10;;;;;;5071116;28;1910;-66
2023/09/25 08:37:42;;;;;;;;;;;20.70;69.20;;;;;;5081523;28;1494;-66
2023/09/25 08:40:09;;;;;;;;;;;20.70;69.20;;;;;;5069934;28;1254;-66
2023/09/25 08:42:34;;;;;;;;;;;20.70;69.10;;;;;;5061203;28;962;-65
2023/09/25 08:45:00;;;;;;;;;;;20.60;69.00;;;;;;5076660;28;1310;-66
2023/09/25 08:47:25;;;;;;;;;;;20.70;69.10;;;;;;5068811;28;1274;-66
2023/09/25 08:49:51;;;;;;;;;;;20.70;69.20;;;;;;5073862;28;1468;-66
2023/09/25 08:52:17;;;;;;;;;;;20.70;69.10;;;;;;5070891;28;1684;-66
2023/09/25 08:54:42;;;;;;;;;;;20.60;69.10;;;;;;5063988;28;1906;-65
2023/09/25 08:57:09;;;;;;;;;;;20.70;69.10;;;;;;5070505;28;1462;-66
2023/09/25 08:59:36;;;;;;;;;;;20.70;69.20;;;;;;5070054;28;1495;-65
2023/09/25 09:02:02;;;;;;;;;;;20.70;69.20;;;;;;5081038;28;1321;-66
2023/09/25 09:04:27;;;;;;;;;;;20.70;69.20;;;;;;5060228;28;1452;-66
2023/09/25 09:06:53;;;;;;;;;;;20.60;69.10;;;;;;5078473;28;1106;-66
2023/09/25 09:09:18;;;;;;;;;;;20.70;69.20;;;;;;5061091;28;1889;-66
2023/09/25 09:11:50;;;;;;;;;;;20.60;69.10;;;;;;5072437;28;1733;-66
2023/09/25 09:14:32;;;;;;;;;;;20.70;69.20;;;;;;5078971;28;1959;-66
2023/09/25 09:16:58;;;;;;;;;;;20.60;69.10;;;;;;5076468;28;1250;-66
2023/09/25 09:19:23;;;;;;;;;;;20.60;69.20;;;;;;5071656;28;1234;-66
2023/09/25 09:21:50;;;;;;;;;;;20.60;69.10;;;;;;5069579;28;1258;-65
2023/09/25 09:24:22;;;;;;;;;;;20.70;69.20;;;;;;5072566;28;1502;-66
2023/09/25 09:26:47;;;;;;;;;;;20.70;69.30;;;;;;5069737;28;1303;-66
2023/09/25 09:29:13;;;;;;;;;;;20.60;69.20;;;;;;5073527;28;1402;-66
2023/09/25 09:31:38;;;;;;;;;;;20.60;69.20;;;;;;5066299;28;1432;-66
2023/09/25 09:34:04;;;;;;;;;;;20.70;69.20;;;;;;5048463;28;1476;-66
2023/09/25 09:36:29;;;;;;;;;;;20.60;69.20;;;;;;5068767;28;1922;-66
2023/09/25 09:38:54;;;;;;;;;;;20.60;69.20;;;;;;5071623;28;1733;-66
2023/09/25 09:41:21;;;;;;;;;;;20.60;69.20;;;;;;5056013;28;1668;-66
2023/09/25 09:43:46;;;;;;;;;;;20.60;69.20;;;;;;5068680;28;1335;-66
2023/09/25 09:46:13;;;;;;;;;;;20.70;69.30;;;;;;5066337;28;1347;-66
2023/09/25 09:48:38;;;;;;;;;;;20.70;69.20;;;;;;5063064;28;1439;-66
2023/09/25 09:51:03;;;;;;;;;;;20.70;69.30;;;;;;5048171;28;1388;-65
2023/09/25 09:53:29;;;;;;;;;;;20.60;69.20;;;;;;5048843;28;1407;-65
2023/09/25 09:55:58;;;;;;;;;;;20.70;69.30;;;;;;5054784;28;1966;-66
2023/09/25 09:58:24;;;;;;;;;;;20.60;69.20;;;;;;5069579;28;1338;-66
2023/09/25 10:00:49;;;;;;;;;;;20.60;69.30;;;;;;5047073;28;1421;-66
2023/09/25 10:03:15;;;;;;;;;;;20.60;69.30;;;;;;5054690;28;1681;-65
2023/09/25 10:05:44;;;;;;;;;;;20.70;69.40;;;;;;5081398;28;1228;-66
2023/09/25 10:08:12;;;;;;;;;;;20.60;69.30;;;;;;5073344;28;1250;-65
2023/09/25 10:10:40;;;;;;;;;;;20.70;69.40;;;;;;5071698;28;1379;-66
2023/09/25 10:13:21;;;;;;;;;;;20.70;69.40;;;;;;5071454;28;1394;-66
2023/09/25 10:15:50;;;;;;;;;;;20.60;69.30;;;;;;5074791;28;1961;-66
2023/09/25 10:18:16;;;;;;;;;;;20.70;69.40;;;;;;5074225;28;1585;-66
2023/09/25 10:20:41;;;;;;;;;;;20.60;69.40;;;;;;5072530;28;1459;-66
2023/09/25 10:23:07;;;;;;;;;;;20.70;69.40;;;;;;5057972;28;1344;-65
2023/09/25 10:25:56;;;;;;;;;;;20.70;69.50;;;;;;5050241;28;1430;-66
2023/09/25 10:28:31;;;;;;;;;;;20.60;69.40;;;;;;5061117;28;1053;-66
2023/09/25 10:30:57;;;;;;;;;;;20.70;69.50;;;;;;5080095;28;934;-66
2023/09/25 10:33:24;;;;;;;;;;;20.70;69.50;;;;;;5073018;28;1305;-66
2023/09/25 10:35:49;;;;;;;;;;;20.70;69.50;;;;;;5050207;28;2001;-65
2023/09/25 10:38:28;;;;;;;;;;;20.60;69.40;;;;;;5072148;28;1020;-66
2023/09/25 10:40:54;;;;;;;;;;;20.70;69.50;;;;;;5051090;28;1339;-66
2023/09/25 10:43:20;;;;;;;;;;;20.70;69.50;;;;;;5075169;28;1677;-66
2023/09/25 10:45:46;;;;;;;;;;;20.70;69.50;;;;;;5054027;28;1478;-66
2023/09/25 10:48:12;;;;;;;;;;;20.70;69.50;;;;;;5065322;28;1357;-66
2023/09/25 10:50:38;;;;;;;;;;;20.60;69.80;;;;;;5075035;28;1351;-66
2023/09/25 10:53:04;;;;;;;;;;;20.70;69.50;;;;;;5039308;28;1369;-66
2023/09/25 10:55:29;;;;;;;;;;;20.70;69.50;;;;;;5070155;28;1910;-66
2023/09/25 10:57:55;;;;;;;;;;;20.70;69.50;;;;;;5075545;28;1315;-66
2023/09/25 11:00:21;;;;;;;;;;;20.70;69.50;;;;;;5072350;28;918;-66
2023/09/25 11:02:47;;;;;;;;;;;20.60;69.40;;;;;;5071625;28;1252;-66
2023/09/25 11:05:12;;;;;;;;;;;20.70;69.60;;;;;;5067456;28;1381;-66
2023/09/25 11:07:38;;;;;;;;;;;20.70;69.50;;;;;;5048361;28;1963;-66
2023/09/25 11:10:07;;;;;;;;;;;20.70;69.50;;;;;;5073702;28;1191;-65
2023/09/25 11:12:33;;;;;;;;;;;20.60;69.50;;;;;;5070905;28;1492;-65
2023/09/25 11:14:58;;;;;;;;;;;20.70;69.50;;;;;;5055774;28;1875;-65
2023/09/25 11:17:24;;;;;;;;;;;20.70;69.60;;;;;;5060613;28;1380;-66
2023/09/25 11:19:53;;;;;;;;;;;20.60;69.50;;;;;;5063448;28;1349;-65
2023/09/25 11:22:21;;;;;;;;;;;20.60;69.50;;;;;;5070431;28;1402;-66
2023/09/25 11:24:54;;;;;;;;;;;20.70;69.50;;;;;;5051263;28;1391;-66
2023/09/25 11:27:19;;;;;;;;;;;20.70;69.50;;;;;;5074406;28;1699;-65
2023/09/25 11:29:47;;;;;;;;;;;20.60;69.50;;;;;;5070162;28;1306;-66
2023/09/25 11:32:13;;;;;;;;;;;20.70;69.50;;;;;;5071174;28;1459;-65
2023/09/25 11:34:39;;;;;;;;;;;20.70;69.50;;;;;;5064329;28;1966;-66
2023/09/25 11:37:04;;;;;;;;;;;20.60;69.50;;;;;;5072550;28;1569;-66
2023/09/25 11:39:29;;;;;;;;;;;20.70;69.50;;;;;;5073640;28;1450;-66
2023/09/25 11:41:55;;;;;;;;;;;20.70;69.50;;;;;;5073590;28;1435;-65
2023/09/25 11:44:20;;;;;;;;;;;20.70;69.60;;;;;;5066908;28;1892;-66
2023/09/25 11:46:46;;;;;;;;;;;20.70;69.50;;;;;;5070811;28;1476;-65
2023/09/25 11:49:14;;;;;;;;;;;20.70;69.50;;;;;;5062184;28;1447;-66
2023/09/25 11:51:40;;;;;;;;;;;20.70;69.50;;;;;;5065989;28;1270;-65
2023/09/25 11:54:05;;;;;;;;;;;20.60;69.50;;;;;;5065922;28;1536;-66
2023/09/25 11:56:31;;;;;;;;;;;20.70;69.50;;;;;;5067925;28;1991;-66
2023/09/25 11:58:56;;;;;;;;;;;20.70;69.50;;;;;;5048705;28;1266;-65
2023/09/25 12:01:22;;;;;;;;;;;20.70;69.50;;;;;;5069299;28;1379;-66
2023/09/25 12:03:47;;;;;;;;;;;20.70;69.50;;;;;;5069798;28;1375;-66
2023/09/25 12:06:13;;;;;;;;;;;20.70;69.50;;;;;;5066524;28;1324;-65
2023/09/25 12:08:38;;;;;;;;;;;20.70;69.50;;;;;;5062808;28;1637;-66
2023/09/25 12:11:04;;;;;;;;;;;20.70;69.50;;;;;;5060542;28;1408;-65
2023/09/25 12:13:30;;;;;;;;;;;20.60;69.40;;;;;;5060290;28;1581;-65
2023/09/25 12:15:55;;;;;;;;;;;20.60;69.50;;;;;;5070679;28;2007;-65
2023/09/25 12:18:21;;;;;;;;;;;20.70;69.50;;;;;;5060268;28;1613;-66
2023/09/25 12:20:47;;;;;;;;;;;20.60;69.50;;;;;;5071700;28;1511;-65
2023/09/25 12:23:12;;;;;;;;;;;20.70;69.60;;;;;;5071199;28;1321;-66
2023/09/25 12:25:38;;;;;;;;;;;20.70;69.60;;;;;;5067151;28;1237;-65
2023/09/25 12:28:04;;;;;;;;;;;20.70;69.60;;;;;;5072197;28;1444;-66
2023/09/25 12:30:29;;;;;;;;;;;20.60;69.50;;;;;;5078800;28;1381;-66
2023/09/25 12:32:55;;;;;;;;;;;20.70;69.60;;;;;;5078632;28;1444;-66
2023/09/25 12:35:20;;;;;;;;;;;20.70;69.60;;;;;;5071168;28;1989;-66
2023/09/25 12:37:46;;;;;;;;;;;20.70;69.60;;;;;;5072266;28;1211;-66
2023/09/25 12:40:15;;;;;;;;;;;20.60;69.50;;;;;;5051052;28;1438;-66
2023/09/25 12:42:41;;;;;;;;;;;20.70;69.60;;;;;;5061676;28;1337;-66
2023/09/25 12:45:07;;;;;;;;;;;20.60;69.50;;;;;;5073325;28;1330;-65
2023/09/25 12:47:32;;;;;;;;;;;20.60;69.50;;;;;;5070436;28;950;-66
2023/09/25 12:49:58;;;;;;;;;;;20.70;69.60;;;;;;5073437;28;1233;-66
2023/09/25 12:52:23;;;;;;;;;;;20.70;69.60;;;;;;5065936;28;1249;-65
2023/09/25 12:54:49;;;;;;;;;;;20.60;69.50;;;;;;5074641;28;1996;-66
2023/09/25 12:57:16;;;;;;;;;;;20.70;69.60;;;;;;5061899;28;1330;-65
2023/09/25 12:59:41;;;;;;;;;;;20.60;69.50;;;;;;5070498;28;1355;-66
2023/09/25 13:02:07;;;;;;;;;;;20.60;69.50;;;;;;5080685;28;1514;-66
2023/09/25 13:04:32;;;;;;;;;;;20.70;69.60;;;;;;5057509;28;1401;-66
2023/09/25 13:06:58;;;;;;;;;;;20.70;69.60;;;;;;5070660;28;1336;-66
2023/09/25 13:09:24;;;;;;;;;;;20.70;69.60;;;;;;5059976;28;1415;-65
2023/09/25 13:11:50;;;;;;;;;;;20.60;69.60;;;;;;5065875;28;1555;-66
2023/09/25 13:14:15;;;;;;;;;;;20.70;69.60;;;;;;5074181;28;1684;-66
2023/09/25 13:16:41;;;;;;;;;;;20.70;69.70;;;;;;5060707;28;1963;-66
2023/09/25 13:19:06;;;;;;;;;;;20.60;69.60;;;;;;5056793;28;1545;-66
2023/09/25 13:21:32;;;;;;;;;;;20.70;69.70;;;;;;5071782;28;1233;-66
2023/09/25 13:23:58;;;;;;;;;;;20.70;69.60;;;;;;5068737;28;1390;-65
2023/09/25 13:26:24;;;;;;;;;;;20.70;69.60;;;;;;5073669;28;902;-65
2023/09/25 13:28:50;;;;;;;;;;;20.70;69.60;;;;;;5061739;28;994;-66
2023/09/25 13:31:15;;;;;;;;;;;20.70;69.70;;;;;;5076691;28;1430;-65
2023/09/25 13:33:41;;;;;;;;;;;20.70;69.70;;;;;;5056293;28;1292;-66
2023/09/25 13:36:06;;;;;;;;;;;20.70;69.70;;;;;;5067699;28;1906;-66
2023/09/25 13:38:32;;;;;;;;;;;20.70;69.70;;;;;;5075248;28;1276;-66
2023/09/25 13:40:57;;;;;;;;;;;20.70;69.70;;;;;;5072978;28;1842;-66
2023/09/25 13:43:23;;;;;;;;;;;20.60;69.60;;;;;;5072857;28;1892;-66
2023/09/25 13:45:48;;;;;;;;;;;20.70;69.70;;;;;;5064570;28;1425;-65
2023/09/25 13:48:14;;;;;;;;;;;20.70;69.70;;;;;;5070774;28;1525;-65
2023/09/25 13:50:39;;;;;;;;;;;20.70;69.70;;;;;;5073907;28;1475;-65
2023/09/25 13:53:05;;;;;;;;;;;20.60;69.60;;;;;;5072711;28;1532;-65
2023/09/25 13:55:30;;;;;;;;;;;20.70;69.70;;;;;;5075142;28;1910;-65
2023/09/25 13:57:56;;;;;;;;;;;20.70;69.70;;;;;;5052952;28;1509;-65
2023/09/25 14:00:23;;;;;;;;;;;20.70;69.70;;;;;;5053350;28;1808;-65
2023/09/25 14:02:48;;;;;;;;;;;20.60;69.60;;;;;;5072005;28;1538;-65
2023/09/25 14:05:14;;;;;;;;;;;20.70;69.70;;;;;;5052171;28;1653;-65
2023/09/25 14:07:40;;;;;;;;;;;20.60;69.70;;;;;;5071634;28;1447;-65
2023/09/25 14:10:06;;;;;;;;;;;20.70;69.70;;;;;;5070039;28;1386;-65
2023/09/25 14:12:32;;;;;;;;;;;20.60;69.70;;;;;;5056976;28;1383;-66
2023/09/25 14:14:57;;;;;;;;;;;20.70;69.70;;;;;;5059228;28;1965;-65
2023/09/25 14:17:23;;;;;;;;;;;20.60;69.70;;;;;;5053796;28;1539;-65
2023/09/25 14:19:49;;;;;;;;;;;20.70;69.70;;;;;;5068590;28;1346;-65
2023/09/25 14:22:15;;;;;;;;;;;20.70;69.70;;;;;;5071711;28;1245;-65
2023/09/25 14:24:40;;;;;;;;;;;20.70;69.80;;;;;;5067002;28;1515;-65